createdAt,value
2018-04-18T00:00:49.406Z,11.13
2018-04-18T00:01:49.406Z,11.15
2018-04-18T00:02:49.406Z,11.15
2018-04-18T00:03:49.405Z,11.15
2018-04-18T00:04:49.406Z,11.15
2018-04-18T00:05:49.403Z,11.16
2018-04-18T00:06:49.403Z,11.13
2018-04-18T00:07:49.400Z,11.16
2018-04-18T00:08:49.400Z,11.08
2018-04-18T00:09:49.399Z,11.05
2018-04-18T00:10:49.398Z,11.10
2018-04-18T00:11:49.396Z,11.07
2018-04-18T00:12:49.396Z,11.04
2018-04-18T00:13:49.395Z,10.95
2018-04-18T00:14:49.394Z,10.94
2018-04-18T00:15:49.391Z,11.04
2018-04-18T00:16:49.392Z,11.05
2018-04-18T00:17:49.389Z,11.04
2018-04-18T00:18:49.389Z,11.01
2018-04-18T00:19:49.386Z,11.01
2018-04-18T00:20:49.386Z,11.01
2018-04-18T00:21:49.389Z,11.00
2018-04-18T00:22:49.387Z,10.90
2018-04-18T00:23:49.382Z,10.87
2018-04-18T00:24:49.381Z,10.90
2018-04-18T00:25:49.379Z,10.97
2018-04-18T00:26:49.379Z,10.83
2018-04-18T00:27:49.377Z,10.82
2018-04-18T00:28:49.376Z,10.84
2018-04-18T00:29:49.374Z,10.80
2018-04-18T00:30:49.374Z,10.84
2018-04-18T00:31:49.373Z,10.86
2018-04-18T00:32:49.370Z,10.89
2018-04-18T00:33:49.369Z,10.89
2018-04-18T00:34:49.367Z,10.86
2018-04-18T00:35:49.367Z,10.94
2018-04-18T00:36:49.365Z,10.87
2018-04-18T00:37:49.367Z,10.90
2018-04-18T00:38:49.363Z,10.98
2018-04-18T00:39:49.361Z,10.87
2018-04-18T00:40:49.360Z,10.77
2018-04-18T00:41:49.358Z,10.76
2018-04-18T00:42:49.357Z,10.75
2018-04-18T00:43:49.356Z,10.72
2018-04-18T00:44:49.354Z,10.71
2018-04-18T00:45:49.356Z,10.69
2018-04-18T00:46:49.351Z,10.76
2018-04-18T00:47:49.351Z,10.64
2018-04-18T00:48:49.350Z,10.67
2018-04-18T00:49:49.352Z,10.59
2018-04-18T00:50:49.346Z,10.58
2018-04-18T00:51:49.344Z,10.59
2018-04-18T00:52:49.344Z,10.55
2018-04-18T00:53:49.365Z,10.53
2018-04-18T00:54:49.339Z,10.57
2018-04-18T00:55:49.343Z,10.48
2018-04-18T00:56:49.338Z,10.58
2018-04-18T00:57:49.336Z,10.61
2018-04-18T00:58:49.336Z,10.62
2018-04-18T00:59:49.336Z,10.64
2018-04-18T01:00:49.331Z,10.62
2018-04-18T01:01:49.330Z,10.61
2018-04-18T01:02:49.327Z,10.57
2018-04-18T01:03:49.326Z,10.64
2018-04-18T01:04:49.325Z,10.64
2018-04-18T01:05:49.324Z,10.71
2018-04-18T01:06:49.320Z,10.68
2018-04-18T01:07:49.321Z,10.61
2018-04-18T01:08:49.320Z,10.55
2018-04-18T01:09:49.316Z,10.62
2018-04-18T01:10:49.315Z,10.68
2018-04-18T01:11:49.313Z,10.58
2018-04-18T01:12:49.312Z,10.68
2018-04-18T01:13:49.312Z,10.59
2018-04-18T01:14:49.313Z,10.65
2018-04-18T01:15:49.310Z,10.58
2018-04-18T01:16:49.305Z,10.62
2018-04-18T01:17:49.305Z,10.68
2018-04-18T01:18:49.305Z,10.57
2018-04-18T01:19:49.300Z,10.62
2018-04-18T01:20:49.298Z,10.65
2018-04-18T01:21:49.297Z,10.62
2018-04-18T01:22:49.295Z,10.68
2018-04-18T01:23:49.296Z,10.59
2018-04-18T01:24:49.293Z,10.62
2018-04-18T01:25:49.292Z,10.64
2018-04-18T01:26:49.289Z,10.65
2018-04-18T01:27:49.288Z,10.62
2018-04-18T01:28:49.286Z,10.67
2018-04-18T01:29:49.295Z,10.57
2018-04-18T01:30:49.283Z,10.62
2018-04-18T01:31:49.282Z,10.58
2018-04-18T01:32:49.280Z,10.53
2018-04-18T01:33:49.279Z,10.58
2018-04-18T01:34:49.276Z,10.46
2018-04-18T01:35:49.275Z,10.41
2018-04-18T01:36:49.273Z,10.49
2018-04-18T01:37:49.271Z,10.43
2018-04-18T01:38:49.268Z,10.49
2018-04-18T01:39:49.269Z,10.36
2018-04-18T01:40:49.266Z,10.41
2018-04-18T01:41:49.264Z,10.28
2018-04-18T01:42:49.261Z,10.21
2018-04-18T01:43:49.260Z,10.28
2018-04-18T01:44:49.259Z,10.33
2018-04-18T01:45:49.260Z,10.34
2018-04-18T01:46:49.256Z,10.36
2018-04-18T01:47:49.253Z,10.39
2018-04-18T01:48:49.259Z,10.25
2018-04-18T01:49:49.250Z,10.25
2018-04-18T01:50:49.249Z,10.21
2018-04-18T01:51:49.246Z,10.18
2018-04-18T01:52:49.246Z,10.25
2018-04-18T01:53:49.245Z,10.25
2018-04-18T01:54:49.242Z,10.23
2018-04-18T01:55:49.241Z,10.28
2018-04-18T01:56:49.240Z,10.24
2018-04-18T01:57:49.241Z,10.23
2018-04-18T01:58:49.235Z,10.38
2018-04-18T01:59:49.235Z,10.42
2018-04-18T02:00:49.233Z,10.41
2018-04-18T02:01:49.230Z,10.48
2018-04-18T02:02:49.227Z,10.41
2018-04-18T02:03:49.227Z,10.43
2018-04-18T02:04:49.224Z,10.57
2018-04-18T02:05:49.224Z,10.49
2018-04-18T02:06:49.219Z,10.46
2018-04-18T02:07:49.221Z,10.46
2018-04-18T02:08:49.221Z,10.53
2018-04-18T02:09:49.216Z,10.45
2018-04-18T02:10:49.213Z,10.41
2018-04-18T02:11:49.212Z,10.43
2018-04-18T02:12:49.211Z,10.42
2018-04-18T02:13:49.209Z,10.49
2018-04-18T02:14:49.207Z,10.42
2018-04-18T02:15:49.206Z,10.34
2018-04-18T02:16:49.206Z,10.25
2018-04-18T02:17:49.201Z,10.25
2018-04-18T02:18:49.200Z,10.25
2018-04-18T02:19:49.198Z,10.36
2018-04-18T02:20:49.195Z,10.24
2018-04-18T02:21:49.194Z,10.25
2018-04-18T02:22:49.193Z,10.21
2018-04-18T02:23:49.191Z,10.09
2018-04-18T02:24:49.192Z,10.07
2018-04-18T02:25:49.188Z,10.06
2018-04-18T02:26:49.186Z,9.92
2018-04-18T02:27:49.184Z,9.92
2018-04-18T02:28:49.185Z,9.87
2018-04-18T02:29:49.182Z,9.94
2018-04-18T02:30:49.178Z,9.92
2018-04-18T02:31:49.176Z,9.95
2018-04-18T02:32:49.175Z,9.97
2018-04-18T02:33:49.174Z,10.02
2018-04-18T02:34:49.172Z,10.02
2018-04-18T02:35:49.201Z,10.07
2018-04-18T02:36:49.168Z,10.10
2018-04-18T02:37:49.168Z,10.10
2018-04-18T02:38:49.164Z,10.12
2018-04-18T02:39:49.160Z,10.15
2018-04-18T02:40:49.161Z,10.10
2018-04-18T02:41:49.159Z,10.13
2018-04-18T02:42:49.155Z,10.05
2018-04-18T02:43:49.153Z,9.97
2018-04-18T02:44:49.160Z,9.84
2018-04-18T02:45:49.151Z,9.76
2018-04-18T02:46:49.146Z,9.76
2018-04-18T02:47:49.144Z,9.72
2018-04-18T02:48:49.145Z,9.72
2018-04-18T02:49:49.142Z,9.76
2018-04-18T02:50:49.138Z,9.87
2018-04-18T02:51:49.137Z,9.73
2018-04-18T02:52:49.143Z,9.90
2018-04-18T02:53:49.132Z,9.87
2018-04-18T02:54:49.130Z,9.84
2018-04-18T02:55:49.129Z,9.87
2018-04-18T02:56:49.129Z,9.90
2018-04-18T02:57:49.127Z,9.94
2018-04-18T02:58:49.122Z,9.95
2018-04-18T02:59:49.120Z,10.00
2018-04-18T03:00:49.118Z,10.00
2018-04-18T03:01:49.116Z,9.94
2018-04-18T03:02:49.114Z,9.84
2018-04-18T03:03:49.112Z,9.90
2018-04-18T03:04:49.111Z,9.85
2018-04-18T03:05:49.108Z,9.72
2018-04-18T03:06:49.106Z,9.72
2018-04-18T03:07:49.103Z,9.70
2018-04-18T03:08:49.101Z,9.72
2018-04-18T03:09:49.103Z,9.74
2018-04-18T03:10:49.099Z,9.73
2018-04-18T03:11:49.096Z,9.76
2018-04-18T03:12:49.092Z,9.76
2018-04-18T03:13:49.092Z,9.73
2018-04-18T03:14:49.093Z,9.74
2018-04-18T03:15:49.088Z,9.64
2018-04-18T03:16:49.085Z,9.66
2018-04-18T03:17:49.084Z,9.66
2018-04-18T03:18:49.081Z,9.62
2018-04-18T03:19:49.079Z,9.66
2018-04-18T03:20:49.077Z,9.67
2018-04-18T03:21:49.075Z,9.64
2018-04-18T03:22:49.077Z,9.69
2018-04-18T03:23:49.071Z,9.69
2018-04-18T03:24:49.069Z,9.62
2018-04-18T03:25:49.068Z,9.69
2018-04-18T03:26:49.064Z,9.67
2018-04-18T03:27:49.064Z,9.64
2018-04-18T03:28:49.062Z,9.63
2018-04-18T03:29:49.060Z,9.67
2018-04-18T03:30:49.059Z,9.64
2018-04-18T03:31:49.055Z,9.66
2018-04-18T03:32:49.060Z,9.64
2018-04-18T03:33:49.051Z,9.66
2018-04-18T03:34:49.049Z,9.73
2018-04-18T03:35:49.048Z,9.70
2018-04-18T03:36:49.046Z,9.77
2018-04-18T03:37:49.043Z,9.77
2018-04-18T03:38:49.041Z,9.76
2018-04-18T03:39:49.038Z,9.80
2018-04-18T03:40:49.052Z,9.82
2018-04-18T03:41:49.035Z,9.70
2018-04-18T03:42:49.031Z,9.88
2018-04-18T03:43:49.031Z,9.90
2018-04-18T03:44:49.029Z,9.72
2018-04-18T03:45:49.025Z,9.70
2018-04-18T03:46:49.023Z,9.73
2018-04-18T03:47:49.021Z,9.74
2018-04-18T03:48:49.021Z,9.73
2018-04-18T03:49:49.018Z,9.74
2018-04-18T03:50:49.017Z,9.77
2018-04-18T03:51:49.017Z,9.77
2018-04-18T03:52:49.012Z,9.73
2018-04-18T03:53:49.007Z,9.87
2018-04-18T03:54:49.012Z,9.73
2018-04-18T03:55:49.004Z,9.74
2018-04-18T03:56:49.012Z,9.74
2018-04-18T03:57:48.998Z,9.70
2018-04-18T03:58:48.997Z,9.70
2018-04-18T03:59:48.995Z,9.67
2018-04-18T04:00:48.993Z,9.63
2018-04-18T04:01:48.990Z,9.66
2018-04-18T04:02:48.988Z,9.70
2018-04-18T04:03:48.988Z,9.69
2018-04-18T04:04:48.985Z,9.66
2018-04-18T04:05:48.982Z,9.63
2018-04-18T04:06:48.980Z,9.67
2018-04-18T04:07:48.978Z,9.62
2018-04-18T04:08:48.978Z,9.64
2018-04-18T04:09:48.974Z,9.67
2018-04-18T04:10:48.971Z,9.63
2018-04-18T04:11:48.969Z,9.52
2018-04-18T04:12:48.968Z,9.56
2018-04-18T04:13:48.965Z,9.51
2018-04-18T04:14:48.961Z,9.51
2018-04-18T04:15:48.960Z,9.47
2018-04-18T04:16:48.957Z,9.42
2018-04-18T04:17:48.956Z,9.34
2018-04-18T04:18:48.952Z,9.33
2018-04-18T04:19:48.950Z,9.33
2018-04-18T04:20:48.949Z,9.27
2018-04-18T04:21:48.947Z,9.29
2018-04-18T04:22:48.943Z,9.29
2018-04-18T04:23:48.942Z,9.27
2018-04-18T04:24:48.947Z,9.37
2018-04-18T04:25:48.937Z,9.34
2018-04-18T04:26:48.936Z,9.37
2018-04-18T04:27:48.931Z,9.42
2018-04-18T04:28:48.929Z,9.47
2018-04-18T04:29:48.927Z,9.42
2018-04-18T04:30:48.924Z,9.37
2018-04-18T04:31:48.922Z,9.47
2018-04-18T04:32:48.919Z,9.42
2018-04-18T04:33:48.917Z,9.44
2018-04-18T04:34:48.913Z,9.42
2018-04-18T04:35:48.912Z,9.39
2018-04-18T04:36:48.909Z,9.48
2018-04-18T04:37:48.908Z,9.54
2018-04-18T04:38:48.906Z,9.39
2018-04-18T04:39:48.904Z,9.34
2018-04-18T04:40:48.901Z,9.36
2018-04-18T04:41:48.899Z,9.37
2018-04-18T04:42:48.895Z,9.42
2018-04-18T04:43:48.894Z,9.49
2018-04-18T04:44:48.943Z,9.40
2018-04-18T04:45:48.889Z,9.42
2018-04-18T04:46:48.885Z,9.44
2018-04-18T04:47:48.885Z,9.40
2018-04-18T04:48:48.882Z,9.45
2018-04-18T04:49:48.879Z,9.48
2018-04-18T04:50:48.877Z,9.58
2018-04-18T04:51:48.885Z,9.59
2018-04-18T04:52:48.874Z,9.55
2018-04-18T04:53:48.872Z,9.51
2018-04-18T04:54:48.868Z,9.55
2018-04-18T04:55:48.867Z,9.62
2018-04-18T04:56:48.865Z,9.55
2018-04-18T04:57:48.861Z,9.55
2018-04-18T04:58:48.859Z,9.54
2018-04-18T04:59:48.857Z,9.48
2018-04-18T05:00:48.856Z,9.49
2018-04-18T05:01:48.854Z,9.48
2018-04-18T05:02:48.851Z,9.37
2018-04-18T05:03:48.847Z,9.42
2018-04-18T05:04:48.845Z,9.42
2018-04-18T05:05:48.844Z,9.47
2018-04-18T05:06:48.841Z,9.54
2018-04-18T05:07:48.839Z,9.54
2018-04-18T05:08:48.837Z,9.52
2018-04-18T05:09:48.835Z,9.56
2018-04-18T05:10:48.831Z,9.66
2018-04-18T05:11:48.831Z,9.63
2018-04-18T05:12:48.828Z,9.66
2018-04-18T05:13:48.825Z,9.64
2018-04-18T05:14:48.823Z,9.69
2018-04-18T05:15:48.821Z,9.64
2018-04-18T05:16:48.819Z,9.76
2018-04-18T05:17:48.817Z,9.76
2018-04-18T05:18:48.815Z,9.87
2018-04-18T05:19:48.813Z,9.90
2018-04-18T05:20:48.809Z,9.95
2018-04-18T05:21:48.808Z,10.06
2018-04-18T05:22:48.807Z,10.21
2018-04-18T05:23:48.804Z,10.18
2018-04-18T05:24:48.800Z,10.28
2018-04-18T05:25:48.802Z,10.33
2018-04-18T05:26:48.797Z,10.41
2018-04-18T05:27:48.796Z,10.34
2018-04-18T05:28:48.794Z,10.38
2018-04-18T05:29:48.791Z,10.31
2018-04-18T05:30:48.789Z,10.36
2018-04-18T05:31:48.790Z,10.38
2018-04-18T05:32:48.787Z,10.38
2018-04-18T05:33:48.783Z,10.41
2018-04-18T05:34:48.783Z,10.48
2018-04-18T05:35:48.780Z,10.55
2018-04-18T05:36:48.779Z,10.53
2018-04-18T05:37:48.777Z,10.58
2018-04-18T05:38:48.775Z,10.61
2018-04-18T05:39:48.772Z,10.58
2018-04-18T05:40:48.771Z,10.68
2018-04-18T05:41:48.770Z,10.64
2018-04-18T05:42:48.768Z,10.61
2018-04-18T05:43:48.767Z,10.57
2018-04-18T05:44:48.767Z,10.82
2018-04-18T05:45:48.767Z,10.76
2018-04-18T05:46:48.763Z,10.77
2018-04-18T05:47:48.759Z,10.83
2018-04-18T05:48:48.758Z,10.87
2018-04-18T05:49:48.758Z,10.86
2018-04-18T05:50:48.759Z,10.94
2018-04-18T05:51:48.756Z,11.00
2018-04-18T05:52:48.752Z,10.90
2018-04-18T05:53:48.998Z,10.86
2018-04-18T05:54:49.013Z,10.98
2018-04-18T05:55:48.748Z,11.08
2018-04-18T05:56:48.747Z,11.13
2018-04-18T05:57:48.746Z,11.25
2018-04-18T05:58:48.876Z,11.19
2018-04-18T05:59:48.878Z,11.30
2018-04-18T06:00:48.792Z,11.26
2018-04-18T06:01:48.753Z,11.35
2018-04-18T06:02:48.744Z,11.33
2018-04-18T06:03:49.017Z,11.43
2018-04-18T06:04:49.003Z,11.51
2018-04-18T06:05:48.736Z,11.58
2018-04-18T06:06:48.753Z,11.63
2018-04-18T06:07:48.734Z,11.62
2018-04-18T06:08:48.737Z,11.67
2018-04-18T06:09:48.732Z,11.78
2018-04-18T06:10:48.730Z,11.77
2018-04-18T06:11:48.812Z,11.89
2018-04-18T06:12:48.800Z,11.91
2018-04-18T06:13:48.731Z,11.95
2018-04-18T06:14:48.780Z,11.93
2018-04-18T06:15:48.727Z,12.00
2018-04-18T06:16:48.727Z,12.02
2018-04-18T06:17:48.725Z,12.17
2018-04-18T06:18:48.734Z,12.26
2018-04-18T06:19:48.724Z,12.21
2018-04-18T06:20:48.728Z,12.18
2018-04-18T06:21:48.722Z,12.32
2018-04-18T06:22:48.722Z,12.33
2018-04-18T06:23:48.722Z,12.33
2018-04-18T06:24:48.721Z,12.39
2018-04-18T06:25:48.724Z,12.47
2018-04-18T06:26:48.720Z,12.50
2018-04-18T06:27:48.719Z,12.51
2018-04-18T06:28:48.761Z,12.58
2018-04-18T06:29:48.720Z,12.68
2018-04-18T06:30:48.969Z,12.75
2018-04-18T06:31:48.941Z,12.76
2018-04-18T06:32:49.026Z,12.68
2018-04-18T06:33:48.831Z,12.72
2018-04-18T06:34:48.938Z,12.78
2018-04-18T06:35:48.721Z,12.76
2018-04-18T06:36:48.716Z,12.93
2018-04-18T06:37:48.719Z,13.01
2018-04-18T06:38:48.715Z,13.12
2018-04-18T06:39:48.714Z,13.36
2018-04-18T06:40:48.718Z,13.85
2018-04-18T06:41:48.717Z,14.41
2018-04-18T06:42:48.720Z,15.44
2018-04-18T06:43:48.724Z,16.37
2018-04-18T06:44:48.728Z,17.12
2018-04-18T06:45:48.736Z,17.86
2018-04-18T06:46:48.738Z,18.19
2018-04-18T06:47:48.744Z,18.86
2018-04-18T06:48:48.751Z,19.35
2018-04-18T06:49:49.003Z,19.82
2018-04-18T06:50:48.767Z,20.15
2018-04-18T06:51:48.776Z,20.52
2018-04-18T06:52:48.785Z,20.95
2018-04-18T06:53:48.794Z,21.40
2018-04-18T06:54:48.803Z,21.69
2018-04-18T06:55:49.000Z,21.99
2018-04-18T06:56:48.826Z,22.03
2018-04-18T06:57:48.839Z,22.07
2018-04-18T06:58:48.846Z,22.03
2018-04-18T06:59:48.859Z,22.08
2018-04-18T07:00:48.972Z,22.43
2018-04-18T07:01:48.885Z,22.80
2018-04-18T07:02:48.900Z,22.84
2018-04-18T07:03:48.910Z,23.23
2018-04-18T07:04:48.924Z,23.44
2018-04-18T07:05:48.938Z,23.71
2018-04-18T07:06:48.949Z,23.92
2018-04-18T07:07:48.962Z,23.94
2018-04-18T07:08:49.321Z,24.04
2018-04-18T07:09:49.291Z,23.77
2018-04-18T07:10:49.330Z,23.70
2018-04-18T07:11:49.106Z,23.54
2018-04-18T07:12:49.029Z,23.58
2018-04-18T07:13:49.044Z,23.37
2018-04-18T07:14:49.054Z,23.44
2018-04-18T07:15:49.065Z,22.89
2018-04-18T07:16:49.079Z,22.51
2018-04-18T07:17:49.093Z,22.44
2018-04-18T07:18:49.108Z,22.38
2018-04-18T07:19:49.114Z,22.22
2018-04-18T07:20:49.129Z,22.08
2018-04-18T07:21:49.137Z,21.99
2018-04-18T07:22:49.146Z,21.72
2018-04-18T07:23:49.157Z,21.53
2018-04-18T07:24:49.165Z,21.10
2018-04-18T07:25:49.176Z,20.90
2018-04-18T07:26:49.187Z,20.86
2018-04-18T07:27:49.195Z,20.67
2018-04-18T07:28:49.204Z,20.59
2018-04-18T07:29:49.214Z,20.53
2018-04-18T07:30:49.223Z,20.37
2018-04-18T07:31:49.236Z,20.42
2018-04-18T07:32:49.240Z,20.21
2018-04-18T07:33:49.254Z,20.15
2018-04-18T07:34:49.259Z,19.94
2018-04-18T07:35:49.557Z,19.92
2018-04-18T07:36:49.275Z,19.84
2018-04-18T07:37:49.286Z,19.85
2018-04-18T07:38:49.296Z,19.90
2018-04-18T07:39:49.301Z,19.82
2018-04-18T07:40:49.311Z,19.84
2018-04-18T07:41:49.347Z,19.87
2018-04-18T07:42:49.593Z,19.85
2018-04-18T07:43:49.515Z,19.87
2018-04-18T07:44:49.339Z,19.87
2018-04-18T07:45:49.347Z,19.78
2018-04-18T07:46:49.720Z,20.03
2018-04-18T07:47:49.360Z,20.15
2018-04-18T07:48:49.369Z,20.37
2018-04-18T07:49:49.379Z,20.58
2018-04-18T07:50:49.385Z,20.63
2018-04-18T07:51:49.393Z,20.58
2018-04-18T07:52:49.402Z,20.49
2018-04-18T07:53:49.409Z,20.52
2018-04-18T07:54:49.416Z,20.58
2018-04-18T07:55:49.425Z,20.66
2018-04-18T07:56:49.433Z,20.53
2018-04-18T07:57:49.498Z,20.64
2018-04-18T07:58:49.450Z,20.58
2018-04-18T07:59:49.456Z,20.77
2018-04-18T08:00:49.465Z,21.00
2018-04-18T08:01:49.527Z,21.30
2018-04-18T08:02:49.484Z,21.59
2018-04-18T08:03:49.492Z,21.69
2018-04-18T08:04:49.501Z,21.81
2018-04-18T08:05:49.511Z,21.97
2018-04-18T08:06:49.519Z,22.26
2018-04-18T08:07:49.528Z,22.08
2018-04-18T08:08:49.860Z,22.21
2018-04-18T08:09:49.819Z,22.61
2018-04-18T08:10:49.560Z,23.08
2018-04-18T08:11:49.650Z,23.42
2018-04-18T08:12:49.583Z,23.47
2018-04-18T08:13:49.602Z,23.59
2018-04-18T08:14:49.609Z,23.79
2018-04-18T08:15:49.625Z,23.91
2018-04-18T08:16:49.629Z,23.84
2018-04-18T08:17:49.642Z,23.73
2018-04-18T08:18:49.653Z,23.14
2018-04-18T08:19:49.666Z,23.10
2018-04-18T08:20:49.678Z,22.99
2018-04-18T08:21:49.702Z,23.01
2018-04-18T08:22:49.701Z,22.59
2018-04-18T08:23:49.713Z,22.70
2018-04-18T08:24:49.733Z,22.47
2018-04-18T08:25:49.737Z,22.41
2018-04-18T08:26:49.748Z,22.14
2018-04-18T08:27:49.759Z,21.84
2018-04-18T08:28:49.771Z,21.63
2018-04-18T08:29:50.181Z,21.37
2018-04-18T08:30:49.935Z,21.20
2018-04-18T08:31:49.998Z,21.11
2018-04-18T08:32:49.816Z,21.23
2018-04-18T08:33:49.824Z,21.66
2018-04-18T08:34:49.835Z,21.70
2018-04-18T08:35:49.846Z,21.69
2018-04-18T08:36:49.856Z,21.96
2018-04-18T08:37:49.866Z,22.01
2018-04-18T08:38:49.877Z,22.14
2018-04-18T08:39:49.886Z,22.16
2018-04-18T08:40:49.900Z,22.31
2018-04-18T08:41:49.926Z,22.34
2018-04-18T08:42:49.915Z,22.37
2018-04-18T08:43:49.924Z,22.37
2018-04-18T08:44:49.936Z,22.46
2018-04-18T08:45:49.943Z,22.55
2018-04-18T08:46:49.953Z,22.65
2018-04-18T08:47:49.962Z,22.70
2018-04-18T08:48:49.980Z,22.63
2018-04-18T08:49:49.982Z,22.58
2018-04-18T08:50:49.992Z,22.83
2018-04-18T08:51:50.002Z,23.06
2018-04-18T08:52:50.097Z,23.25
2018-04-18T08:53:50.023Z,23.47
2018-04-18T08:54:50.033Z,23.40
2018-04-18T08:55:50.044Z,23.11
2018-04-18T08:56:50.056Z,22.81
2018-04-18T08:57:50.065Z,22.83
2018-04-18T08:58:50.075Z,22.96
2018-04-18T08:59:50.086Z,23.08
2018-04-18T09:00:50.097Z,23.32
2018-04-18T09:01:50.108Z,23.82
2018-04-18T09:02:50.120Z,23.92
2018-04-18T09:03:50.137Z,24.62
2018-04-18T09:04:50.145Z,25.04
2018-04-18T09:05:50.157Z,25.37
2018-04-18T09:06:50.170Z,25.70
2018-04-18T09:07:50.182Z,25.76
2018-04-18T09:08:50.197Z,25.56
2018-04-18T09:09:50.247Z,25.63
2018-04-18T09:10:50.468Z,25.92
2018-04-18T09:11:50.421Z,26.10
2018-04-18T09:12:50.427Z,25.92
2018-04-18T09:13:50.270Z,25.86
2018-04-18T09:14:50.290Z,25.73
2018-04-18T09:15:50.316Z,26.03
2018-04-18T09:16:50.316Z,26.59
2018-04-18T09:17:50.331Z,26.82
2018-04-18T09:18:50.346Z,27.30
2018-04-18T09:19:50.362Z,27.61
2018-04-18T09:20:50.380Z,27.72
2018-04-18T09:21:50.395Z,27.61
2018-04-18T09:22:50.433Z,27.48
2018-04-18T09:23:50.427Z,27.47
2018-04-18T09:24:50.444Z,27.67
2018-04-18T09:25:50.466Z,27.48
2018-04-18T09:26:50.477Z,27.30
2018-04-18T09:27:50.493Z,27.33
2018-04-18T09:28:50.512Z,27.60
2018-04-18T09:29:50.528Z,27.90
2018-04-18T09:30:50.544Z,27.63
2018-04-18T09:31:50.561Z,27.61
2018-04-18T09:32:50.582Z,26.66
2018-04-18T09:33:50.597Z,26.56
2018-04-18T09:34:50.613Z,26.53
2018-04-18T09:35:50.629Z,26.11
2018-04-18T09:36:50.647Z,25.36
2018-04-18T09:37:50.664Z,25.67
2018-04-18T09:38:50.680Z,25.67
2018-04-18T09:39:50.697Z,25.88
2018-04-18T09:40:50.717Z,25.88
2018-04-18T09:41:50.730Z,25.91
2018-04-18T09:42:50.944Z,25.83
2018-04-18T09:43:50.762Z,25.76
2018-04-18T09:44:50.894Z,26.22
2018-04-18T09:45:50.796Z,26.08
2018-04-18T09:46:50.814Z,26.19
2018-04-18T09:47:50.830Z,26.60
2018-04-18T09:48:50.845Z,27.05
2018-04-18T09:49:50.862Z,27.38
2018-04-18T09:50:50.878Z,27.48
2018-04-18T09:51:50.896Z,27.91
2018-04-18T09:52:50.912Z,28.20
2018-04-18T09:53:50.931Z,28.45
2018-04-18T09:54:50.945Z,28.46
2018-04-18T09:55:50.963Z,28.49
2018-04-18T09:56:50.978Z,28.67
2018-04-18T09:57:51.087Z,28.89
2018-04-18T09:58:51.068Z,29.15
2018-04-18T09:59:51.036Z,28.50
2018-04-18T10:00:51.174Z,28.08
2018-04-18T10:01:51.111Z,27.58
2018-04-18T10:02:51.149Z,27.34
2018-04-18T10:03:51.171Z,27.38
2018-04-18T10:04:51.214Z,27.04
2018-04-18T10:05:51.232Z,26.81
2018-04-18T10:06:51.200Z,26.68
2018-04-18T10:07:51.227Z,26.63
2018-04-18T10:08:51.238Z,26.52
2018-04-18T10:09:51.266Z,26.74
2018-04-18T10:10:51.313Z,27.03
2018-04-18T10:11:51.245Z,27.26
2018-04-18T10:12:51.247Z,27.47
2018-04-18T10:13:51.261Z,27.98
2018-04-18T10:14:51.275Z,28.19
2018-04-18T10:15:51.337Z,28.50
2018-04-18T10:16:51.400Z,28.40
2018-04-18T10:17:51.403Z,28.28
2018-04-18T10:18:51.360Z,27.79
2018-04-18T10:19:51.358Z,27.45
2018-04-18T10:20:51.375Z,27.08
2018-04-18T10:21:51.392Z,26.96
2018-04-18T10:22:51.465Z,26.91
2018-04-18T10:23:51.422Z,27.00
2018-04-18T10:24:51.439Z,26.85
2018-04-18T10:25:51.455Z,27.05
2018-04-18T10:26:51.470Z,27.29
2018-04-18T10:27:51.493Z,27.67
2018-04-18T10:28:51.502Z,27.72
2018-04-18T10:29:51.517Z,27.75
2018-04-18T10:30:51.535Z,27.93
2018-04-18T10:31:51.550Z,28.16
2018-04-18T10:32:51.565Z,28.15
2018-04-18T10:33:51.586Z,27.64
2018-04-18T10:34:51.597Z,27.82
2018-04-18T10:35:51.613Z,27.26
2018-04-18T10:36:51.899Z,26.98
2018-04-18T10:37:51.893Z,26.73
2018-04-18T10:38:51.659Z,26.81
2018-04-18T10:39:51.676Z,26.83
2018-04-18T10:40:51.691Z,27.29
2018-04-18T10:41:51.707Z,27.26
2018-04-18T10:42:51.723Z,27.23
2018-04-18T10:43:52.027Z,27.08
2018-04-18T10:44:51.752Z,27.20
2018-04-18T10:45:51.771Z,27.01
2018-04-18T10:46:51.783Z,27.38
2018-04-18T10:47:51.797Z,27.83
2018-04-18T10:48:51.816Z,27.88
2018-04-18T10:49:51.828Z,28.03
2018-04-18T10:50:51.843Z,27.85
2018-04-18T10:51:52.598Z,27.81
2018-04-18T10:52:51.892Z,27.61
2018-04-18T10:53:51.979Z,27.48
2018-04-18T10:54:51.904Z,27.78
2018-04-18T10:55:51.919Z,27.97
2018-04-18T10:56:51.935Z,28.06
2018-04-18T10:57:51.952Z,28.01
2018-04-18T10:58:52.121Z,28.03
2018-04-18T10:59:51.984Z,28.06
2018-04-18T11:00:51.998Z,27.90
2018-04-18T11:01:52.014Z,27.79
2018-04-18T11:02:52.028Z,28.16
2018-04-18T11:03:52.042Z,28.35
2018-04-18T11:04:52.351Z,28.40
2018-04-18T11:05:52.132Z,28.10
2018-04-18T11:06:52.089Z,27.73
2018-04-18T11:07:52.104Z,27.34
2018-04-18T11:08:52.118Z,26.91
2018-04-18T11:09:52.155Z,26.73
2018-04-18T11:10:52.149Z,26.60
2018-04-18T11:11:52.166Z,26.96
2018-04-18T11:12:52.183Z,26.67
2018-04-18T11:13:52.195Z,26.68
2018-04-18T11:14:52.208Z,26.73
2018-04-18T11:15:52.516Z,26.68
2018-04-18T11:16:52.753Z,26.73
2018-04-18T11:17:52.252Z,27.07
2018-04-18T11:18:52.267Z,27.28
2018-04-18T11:19:52.281Z,27.40
2018-04-18T11:20:52.296Z,27.67
2018-04-18T11:21:52.311Z,27.79
2018-04-18T11:22:52.329Z,27.86
2018-04-18T11:23:52.339Z,27.95
2018-04-18T11:24:52.356Z,28.23
2018-04-18T11:25:52.370Z,28.20
2018-04-18T11:26:52.436Z,28.40
2018-04-18T11:27:52.399Z,28.40
2018-04-18T11:28:52.415Z,28.34
2018-04-18T11:29:52.430Z,28.37
2018-04-18T11:30:52.445Z,28.41
2018-04-18T11:31:52.459Z,28.20
2018-04-18T11:32:52.474Z,28.55
2018-04-18T11:33:52.490Z,28.41
2018-04-18T11:34:52.504Z,28.43
2018-04-18T11:35:52.519Z,28.55
2018-04-18T11:36:52.572Z,28.47
2018-04-18T11:37:52.706Z,28.13
2018-04-18T11:38:52.563Z,27.47
2018-04-18T11:39:52.579Z,27.18
2018-04-18T11:40:52.600Z,27.04
2018-04-18T11:41:52.610Z,27.10
2018-04-18T11:42:52.623Z,27.15
2018-04-18T11:43:52.639Z,27.11
2018-04-18T11:44:52.660Z,27.40
2018-04-18T11:45:52.669Z,27.63
2018-04-18T11:46:52.684Z,27.67
2018-04-18T11:47:52.697Z,27.41
2018-04-18T11:48:52.713Z,27.16
2018-04-18T11:49:52.724Z,27.03
2018-04-18T11:50:52.738Z,26.93
2018-04-18T11:51:52.767Z,26.98
2018-04-18T11:52:52.771Z,27.11
2018-04-18T11:53:52.790Z,27.28
2018-04-18T11:54:52.796Z,27.37
2018-04-18T11:55:52.809Z,27.75
2018-04-18T11:56:52.825Z,27.67
2018-04-18T11:57:52.840Z,27.72
2018-04-18T11:58:52.857Z,27.68
2018-04-18T11:59:52.867Z,27.79
2018-04-18T12:00:53.081Z,27.97
2018-04-18T12:01:52.896Z,28.09
2018-04-18T12:02:52.909Z,28.20
2018-04-18T12:03:52.934Z,28.47
2018-04-18T12:04:52.942Z,28.59
2018-04-18T12:05:53.156Z,28.27
2018-04-18T12:06:53.191Z,28.38
2018-04-18T12:07:53.203Z,27.81
2018-04-18T12:08:52.994Z,27.45
2018-04-18T12:09:53.009Z,27.33
2018-04-18T12:10:53.028Z,26.96
2018-04-18T12:11:53.041Z,26.51
2018-04-18T12:12:53.145Z,26.15
2018-04-18T12:13:53.065Z,26.15
2018-04-18T12:14:53.079Z,26.31
2018-04-18T12:15:53.090Z,26.22
2018-04-18T12:16:53.256Z,26.10
2018-04-18T12:17:53.119Z,25.85
2018-04-18T12:18:53.132Z,26.01
2018-04-18T12:19:53.145Z,26.24
2018-04-18T12:20:53.267Z,26.48
2018-04-18T12:21:53.171Z,26.24
2018-04-18T12:22:53.184Z,26.22
2018-04-18T12:23:53.197Z,26.19
2018-04-18T12:24:53.211Z,26.42
2018-04-18T12:25:53.444Z,26.71
2018-04-18T12:26:53.435Z,26.93
2018-04-18T12:27:53.488Z,26.98
2018-04-18T12:28:53.261Z,26.96
2018-04-18T12:29:53.500Z,27.07
2018-04-18T12:30:53.286Z,26.83
2018-04-18T12:31:53.299Z,26.86
2018-04-18T12:32:53.314Z,26.64
2018-04-18T12:33:53.326Z,26.45
2018-04-18T12:34:53.339Z,26.24
2018-04-18T12:35:53.368Z,26.06
2018-04-18T12:36:53.365Z,25.95
2018-04-18T12:37:53.378Z,25.62
2018-04-18T12:38:53.393Z,25.58
2018-04-18T12:39:53.488Z,25.66
2018-04-18T12:40:53.415Z,25.68
2018-04-18T12:41:53.429Z,25.76
2018-04-18T12:42:53.440Z,25.93
2018-04-18T12:43:53.452Z,26.06
2018-04-18T12:44:53.465Z,25.83
2018-04-18T12:45:53.477Z,25.91
2018-04-18T12:46:53.488Z,26.27
2018-04-18T12:47:53.503Z,26.48
2018-04-18T12:48:53.515Z,26.56
2018-04-18T12:49:53.642Z,26.61
2018-04-18T12:50:53.535Z,26.34
2018-04-18T12:51:53.548Z,26.29
2018-04-18T12:52:53.561Z,26.31
2018-04-18T12:53:53.571Z,26.11
2018-04-18T12:54:53.584Z,26.36
2018-04-18T12:55:53.595Z,26.61
2018-04-18T12:56:53.607Z,26.68
2018-04-18T12:57:53.620Z,26.91